Time;durP1;ratioP1;P1;durP2;ratioP2;P2;SDS_P1;SDS_P2;PMS_P1;PMS_P2;Temp;Humidity;BMP_temperature;BMP_pressure;BME280_temperature;BME280_humidity;BME280_pressure;Samples;Min_cycle;Max_cycle;Signal;HPM_P1;HPM_P2
2024/04/11 00:02:08;;;;;;;4.68;1.60;;;8.00;99.90;;;;;;5489264;26;20376;-79
2024/04/11 00:04:34;;;;;;;5.32;1.67;;;8.10;99.90;;;;;;5491962;26;20000;-79
2024/04/11 00:06:59;;;;;;;3.85;1.33;;;8.10;99.90;;;;;;5491365;26;20067;-77
2024/04/11 00:09:25;;;;;;;3.50;1.70;;;7.90;99.90;;;;;;5491049;26;20331;-79
2024/04/11 00:11:51;;;;;;;4.05;1.60;;;7.90;99.90;;;;;;5489845;26;19994;-80
2024/04/11 00:14:16;;;;;;;5.45;2.00;;;8.00;99.90;;;;;;5488954;26;20028;-80
2024/04/11 00:16:42;;;;;;;3.10;1.42;;;8.00;99.90;;;;;;5489791;26;20054;-80
2024/04/11 00:19:07;;;;;;;4.97;2.17;;;7.90;99.90;;;;;;5488686;26;20009;-79
2024/04/11 00:21:33;;;;;;;3.55;1.63;;;7.90;99.90;;;;;;5489779;26;20379;-79
2024/04/11 00:23:58;;;;;;;3.65;1.50;;;7.80;99.90;;;;;;5489923;26;20008;-80
2024/04/11 00:26:24;;;;;;;2.88;1.45;;;7.80;99.90;;;;;;5490625;26;19990;-80
2024/04/11 00:28:49;;;;;;;4.18;2.13;;;7.70;99.90;;;;;;5489819;26;20004;-80
2024/04/11 00:31:15;;;;;;;5.15;1.70;;;7.60;99.90;;;;;;5488644;26;20320;-80
2024/04/11 00:33:54;;;;;;;5.20;1.73;;;7.50;99.90;;;;;;5490023;26;20063;-79
2024/04/11 00:36:21;;;;;;;2.17;1.30;;;7.50;99.90;;;;;;5488533;26;19990;-79
2024/04/11 00:38:48;;;;;;;5.05;1.77;;;7.60;99.90;;;;;;5491046;26;19994;-79
2024/04/11 00:41:14;;;;;;;7.13;1.60;;;7.60;99.90;;;;;;5488297;26;20004;-79
2024/04/11 00:43:39;;;;;;;4.70;1.55;;;7.50;99.90;;;;;;5490804;26;19994;-80
2024/04/11 00:46:06;;;;;;;3.05;1.73;;;7.50;99.90;;;;;;5490336;26;20000;-77
2024/04/11 00:48:32;;;;;;;4.20;1.70;;;7.50;99.90;;;;;;5489767;26;20031;-80
2024/04/11 00:50:59;;;;;;;4.80;2.00;;;7.50;99.90;;;;;;5490628;26;19990;-79
2024/04/11 00:53:27;;;;;;;3.75;1.80;;;7.40;99.90;;;;;;5489707;26;20041;-78
2024/04/11 00:55:54;;;;;;;2.67;1.38;;;7.30;99.90;;;;;;5488745;26;20002;-78
2024/04/11 00:58:22;;;;;;;2.80;1.58;;;7.30;99.90;;;;;;5488233;26;19990;-78
2024/04/11 01:00:47;;;;;;;8.00;1.70;;;7.30;99.90;;;;;;5489992;26;20020;-78
2024/04/11 01:03:14;;;;;;;4.65;1.60;;;7.30;99.90;;;;;;5489599;26;19994;-78
2024/04/11 01:05:40;;;;;;;4.65;1.60;;;7.20;99.90;;;;;;5488517;26;20367;-78
2024/04/11 01:08:09;;;;;;;3.38;1.58;;;7.20;99.90;;;;;;5487988;26;19990;-77
2024/04/11 01:10:39;;;;;;;5.85;1.98;;;7.20;99.90;;;;;;5488963;26;19994;-81
2024/04/11 01:13:05;;;;;;;3.55;1.63;;;7.20;99.90;;;;;;5490383;26;20009;-78
2024/04/11 01:15:35;;;;;;;3.78;1.73;;;7.20;99.90;;;;;;5489047;26;20462;-81
2024/04/11 01:18:01;;;;;;;5.57;1.45;;;7.30;99.90;;;;;;5488904;26;20066;-81
2024/04/11 01:20:26;;;;;;;2.30;1.33;;;7.20;99.90;;;;;;5490070;26;20499;-81
2024/04/11 01:22:52;;;;;;;5.50;1.38;;;7.20;99.90;;;;;;5488690;26;20388;-81
2024/04/11 01:25:18;;;;;;;3.50;1.60;;;7.10;99.90;;;;;;5487923;26;20070;-80
2024/04/11 01:27:44;;;;;;;2.88;1.35;;;7.10;99.90;;;;;;5490726;26;19990;-81
2024/04/11 01:30:11;;;;;;;4.85;1.55;;;7.20;99.90;;;;;;5488138;26;19995;-81
2024/04/11 01:32:38;;;;;;;3.72;1.65;;;7.20;99.90;;;;;;5489211;26;19994;-81
2024/04/11 01:35:04;;;;;;;2.90;1.35;;;7.00;99.90;;;;;;5488940;26;19990;-79
2024/04/11 01:37:29;;;;;;;4.20;1.40;;;6.90;99.90;;;;;;5487770;26;20005;-79
2024/04/11 01:39:56;;;;;;;2.10;1.33;;;6.90;99.90;;;;;;5488356;26;19998;-79
2024/04/11 01:42:21;;;;;;;3.78;1.50;;;6.90;99.90;;;;;;5487647;26;19998;-79
2024/04/11 01:44:47;;;;;;;2.47;1.52;;;6.90;99.90;;;;;;5488443;26;20005;-80
2024/04/11 01:47:15;;;;;;;2.47;1.55;;;6.90;99.90;;;;;;5488957;26;20090;-79
2024/04/11 01:49:42;;;;;;;6.00;1.70;;;6.90;99.90;;;;;;5488185;26;19994;-80
2024/04/11 01:52:12;;;;;;;4.63;1.60;;;6.90;99.90;;;;;;5486814;26;19998;-76
2024/04/11 01:54:41;;;;;;;2.42;1.52;;;6.90;99.90;;;;;;5488427;26;20009;-80
2024/04/11 01:57:08;;;;;;;3.08;1.30;;;6.90;99.90;;;;;;5489292;26;19996;-77
2024/04/11 01:59:34;;;;;;;5.57;1.50;;;6.90;99.90;;;;;;5487992;26;19998;-80
2024/04/11 02:02:07;;;;;;;9.90;1.67;;;6.80;99.90;;;;;;5490029;26;19998;-80
2024/04/11 02:04:33;;;;;;;4.90;1.48;;;6.80;99.90;;;;;;5488139;26;19998;-80
2024/04/11 02:06:59;;;;;;;3.95;1.52;;;6.70;99.90;;;;;;5489741;26;20511;-80
2024/04/11 02:09:27;;;;;;;6.80;1.73;;;6.70;99.90;;;;;;5487117;26;19998;-80
2024/04/11 02:11:53;;;;;;;2.22;1.33;;;6.50;99.90;;;;;;5488144;26;19990;-80
2024/04/11 02:14:22;;;;;;;3.95;1.35;;;6.50;99.90;;;;;;5488520;26;20005;-79
2024/04/11 02:16:49;;;;;;;4.07;1.63;;;6.50;99.90;;;;;;5487720;26;20009;-79
2024/04/11 02:19:16;;;;;;;2.40;1.50;;;6.60;99.90;;;;;;5486377;26;20002;-79
2024/04/11 02:21:41;;;;;;;2.70;1.38;;;6.60;99.90;;;;;;5487398;26;20018;-79
2024/04/11 02:24:08;;;;;;;2.92;1.58;;;6.70;99.90;;;;;;5487059;26;20001;-77
2024/04/11 02:26:34;;;;;;;2.92;1.35;;;6.70;99.90;;;;;;5487065;26;19994;-80
2024/04/11 02:29:04;;;;;;;3.63;1.40;;;6.60;99.90;;;;;;5487539;26;19998;-79
2024/04/11 02:31:33;;;;;;;6.03;1.65;;;6.60;99.90;;;;;;5486862;26;19986;-79
2024/04/11 02:33:59;;;;;;;3.63;1.80;;;6.60;99.90;;;;;;5489122;26;19998;-79
2024/04/11 02:36:29;;;;;;;1.95;1.27;;;6.60;99.90;;;;;;5487987;26;19990;-79
2024/04/11 02:38:56;;;;;;;2.92;1.20;;;6.50;99.90;;;;;;5487491;26;20057;-79
2024/04/11 02:41:22;;;;;;;4.95;1.83;;;6.50;99.90;;;;;;5488134;26;19998;-79
2024/04/11 02:43:48;;;;;;;3.03;1.30;;;6.50;99.90;;;;;;5489076;26;20000;-79
2024/04/11 02:46:17;;;;;;;2.40;1.40;;;6.50;99.90;;;;;;5486267;26;20013;-78
2024/04/11 02:48:44;;;;;;;5.43;1.58;;;6.60;99.90;;;;;;5487569;26;20063;-79
2024/04/11 02:51:13;;;;;;;3.40;1.27;;;6.50;99.90;;;;;;5488246;26;19998;-76
2024/04/11 02:53:39;;;;;;;1.58;1.23;;;6.60;99.90;;;;;;5486857;26;19998;-79
2024/04/11 02:56:09;;;;;;;4.93;1.50;;;6.40;99.90;;;;;;5488761;26;20074;-79
2024/04/11 02:58:35;;;;;;;4.28;1.35;;;6.40;99.90;;;;;;5486392;26;20463;-79
2024/04/11 03:01:03;;;;;;;2.97;1.35;;;6.40;99.90;;;;;;5486889;26;19998;-79
2024/04/11 03:03:32;;;;;;;3.42;1.45;;;6.40;99.90;;;;;;5488511;26;20378;-79
2024/04/11 03:06:11;;;;;;;2.67;1.38;;;6.30;99.90;;;;;;5492363;26;20462;-79
2024/04/11 03:08:40;;;;;;;6.53;1.50;;;6.40;99.90;;;;;;5490387;26;19998;-79
2024/04/11 03:11:10;;;;;;;4.25;1.70;;;6.40;99.90;;;;;;5492126;26;20002;-79
2024/04/11 03:13:36;;;;;;;3.47;1.60;;;6.40;99.90;;;;;;5491571;26;20331;-79
2024/04/11 03:16:02;;;;;;;2.88;1.70;;;6.40;99.90;;;;;;5490505;26;19986;-79
2024/04/11 03:18:28;;;;;;;4.32;1.70;;;6.40;99.90;;;;;;5491616;26;20496;-79
2024/04/11 03:20:59;;;;;;;3.28;1.40;;;6.40;99.90;;;;;;5492166;26;19990;-79
2024/04/11 03:23:26;;;;;;;5.40;2.45;;;6.40;99.90;;;;;;5491420;26;19998;-79
2024/04/11 03:25:52;;;;;;;8.18;3.58;;;6.30;99.90;;;;;;5490250;26;19994;-79
2024/04/11 03:28:19;;;;;;;6.97;3.67;;;6.30;99.90;;;;;;5489270;26;20492;-79
2024/04/11 03:31:04;;;;;;;8.90;4.38;;;6.40;99.90;;;;;;5491818;26;19998;-79
2024/04/11 03:33:30;;;;;;;6.80;3.33;;;6.40;99.90;;;;;;5488618;26;20002;-79
2024/04/11 03:35:57;;;;;;;8.98;3.65;;;6.40;99.90;;;;;;5490325;26;19994;-79
2024/04/11 03:38:26;;;;;;;7.45;3.97;;;6.30;99.90;;;;;;5489349;26;20016;-78
2024/04/11 03:40:59;;;;;;;6.28;3.15;;;6.20;99.90;;;;;;5491225;26;20001;-78
2024/04/11 03:43:28;;;;;;;5.90;2.92;;;6.20;99.90;;;;;;5490380;26;20027;-77
2024/04/11 03:46:21;;;;;;;4.72;2.20;;;6.20;99.90;;;;;;5489759;26;20319;-79
2024/04/11 03:48:55;;;;;;;3.88;1.90;;;6.10;99.90;;;;;;5489887;26;20447;-79
2024/04/11 03:51:25;;;;;;;5.68;2.40;;;6.10;99.90;;;;;;5489080;26;19998;-79
2024/04/11 03:53:55;;;;;;;3.78;1.80;;;6.00;99.90;;;;;;5489809;26;19994;-79
2024/04/11 03:56:23;;;;;;;2.47;1.55;;;5.90;99.90;;;;;;5488901;26;20660;-79
2024/04/11 03:58:50;;;;;;;4.38;2.00;;;5.80;99.90;;;;;;5491472;26;20423;-79
2024/04/11 04:01:18;;;;;;;4.35;1.80;;;5.90;99.90;;;;;;5490463;26;20013;-76
2024/04/11 04:03:46;;;;;;;7.47;1.80;;;5.90;99.90;;;;;;5491215;26;20006;-78
2024/04/11 04:06:13;;;;;;;4.85;1.98;;;5.90;99.90;;;;;;5489567;26;20001;-79
2024/04/11 04:08:44;;;;;;;3.13;1.50;;;5.90;99.90;;;;;;5488694;26;19998;-79
2024/04/11 04:11:10;;;;;;;2.38;1.48;;;5.80;99.90;;;;;;5491189;26;20030;-80
2024/04/11 04:13:37;;;;;;;3.05;1.90;;;5.80;99.90;;;;;;5490215;26;20009;-79
2024/04/11 04:16:10;;;;;;;3.78;2.05;;;5.80;99.90;;;;;;5490427;26;19994;-79
2024/04/11 04:18:40;;;;;;;3.58;1.60;;;5.80;99.90;;;;;;5488603;26;19994;-79
2024/04/11 04:21:09;;;;;;;3.22;1.55;;;5.80;99.90;;;;;;5489235;26;20030;-79
2024/04/11 04:23:35;;;;;;;1.85;1.23;;;5.70;99.90;;;;;;5487826;26;20182;-79
2024/04/11 04:26:04;;;;;;;3.47;1.58;;;5.70;99.90;;;;;;5490682;26;20431;-79
2024/04/11 04:28:35;;;;;;;2.97;1.58;;;5.70;99.90;;;;;;5487966;26;20005;-79
2024/04/11 04:31:16;;;;;;;2.10;1.40;;;5.50;99.90;;;;;;5489450;26;20354;-79
2024/04/11 04:33:49;;;;;;;2.83;1.88;;;5.40;99.90;;;;;;5489647;26;19994;-79
2024/04/11 04:36:18;;;;;;;2.92;1.50;;;5.30;99.90;;;;;;5489054;26;20034;-75
2024/04/11 04:38:49;;;;;;;6.50;1.30;;;5.30;99.90;;;;;;5489489;26;20039;-80
2024/04/11 04:41:17;;;;;;;4.00;1.48;;;5.30;99.90;;;;;;5488771;26;19993;-76
2024/04/11 04:43:44;;;;;;;4.60;1.52;;;5.10;99.90;;;;;;5489554;26;19994;-79
2024/04/11 04:46:11;;;;;;;2.47;1.35;;;5.10;99.90;;;;;;5490826;26;19994;-78
2024/04/11 04:48:37;;;;;;;2.17;1.50;;;5.20;99.90;;;;;;5488247;26;20446;-79
2024/04/11 04:51:04;;;;;;;3.40;1.88;;;5.20;99.90;;;;;;5489449;26;19998;-79
2024/04/11 04:53:30;;;;;;;3.58;1.50;;;5.30;99.90;;;;;;5490594;26;20455;-79
2024/04/11 04:55:56;;;;;;;4.07;1.63;;;5.40;99.90;;;;;;5489577;26;19998;-79
2024/04/11 04:58:22;;;;;;;3.47;1.63;;;5.40;99.90;;;;;;5488771;26;20000;-78
2024/04/11 05:00:47;;;;;;;3.47;2.03;;;5.40;99.90;;;;;;5489048;26;20327;-79
2024/04/11 05:03:14;;;;;;;4.65;1.60;;;5.40;99.90;;;;;;5489078;26;20006;-79
2024/04/11 05:05:43;;;;;;;3.65;1.70;;;5.50;99.90;;;;;;5490053;26;19998;-79
2024/04/11 05:08:11;;;;;;;4.75;1.45;;;5.50;99.90;;;;;;5489124;26;20012;-79
2024/04/11 05:10:37;;;;;;;3.23;1.53;;;5.60;99.90;;;;;;5490128;26;20005;-79
2024/04/11 05:13:09;;;;;;;4.17;1.57;;;5.70;99.90;;;;;;5489070;26;19990;-78
2024/04/11 05:15:39;;;;;;;2.05;1.40;;;5.60;99.90;;;;;;5488285;26;20009;-79
2024/04/11 05:18:05;;;;;;;2.67;1.45;;;5.60;99.90;;;;;;5490504;26;20346;-79
2024/04/11 05:20:33;;;;;;;5.80;2.23;;;5.60;99.90;;;;;;5487598;26;20082;-81
2024/04/11 05:22:59;;;;;;;7.13;2.03;;;5.70;99.90;;;;;;5490155;26;20036;-80
2024/04/11 05:25:26;;;;;;;5.72;1.95;;;5.70;99.90;;;;;;5489100;26;20026;-77
2024/04/11 05:27:53;;;;;;;5.47;2.45;;;5.70;99.90;;;;;;5487070;26;19994;-78
2024/04/11 05:30:19;;;;;;;3.30;1.95;;;5.80;99.90;;;;;;5487616;26;20000;-77
2024/04/11 05:32:46;;;;;;;3.90;1.90;;;5.80;99.90;;;;;;5484349;26;20070;-80
2024/04/11 05:35:14;;;;;;;7.97;2.10;;;5.80;99.90;;;;;;5465592;26;20056;-80
2024/04/11 05:37:40;;;;;;;2.93;1.93;;;5.90;99.90;;;;;;5480428;26;20004;-84
2024/04/11 05:40:07;;;;;;;6.53;2.47;;;5.90;99.90;;;;;;5487961;26;19998;-80
2024/04/11 05:42:35;;;;;;;8.55;2.78;;;6.00;99.90;;;;;;5487268;26;20327;-80
2024/04/11 05:45:03;;;;;;;6.07;2.80;;;5.90;99.90;;;;;;5488348;26;19998;-80
2024/04/11 05:47:30;;;;;;;5.93;2.92;;;6.00;99.90;;;;;;5489130;26;20300;-80
2024/04/11 05:49:57;;;;;;;5.80;2.53;;;6.00;99.90;;;;;;5488578;26;20065;-80
2024/04/11 05:52:23;;;;;;;6.23;3.07;;;6.00;99.90;;;;;;5487672;26;20006;-81
2024/04/11 05:54:51;;;;;;;6.20;3.08;;;6.00;99.90;;;;;;5488343;26;19994;-79
2024/04/11 05:57:17;;;;;;;5.97;2.30;;;6.10;99.90;;;;;;5488516;26;20066;-80
2024/04/11 05:59:44;;;;;;;8.00;2.40;;;6.10;99.90;;;;;;5487143;26;19994;-79
2024/04/11 06:02:13;;;;;;;3.85;1.90;;;6.20;99.90;;;;;;5488189;26;20040;-79
2024/04/11 06:04:41;;;;;;;6.35;2.03;;;6.20;99.90;;;;;;5487548;26;19998;-79
2024/04/11 06:07:08;;;;;;;5.15;2.05;;;6.30;99.90;;;;;;5489682;26;19986;-79
2024/04/11 06:09:34;;;;;;;6.20;2.60;;;6.40;99.90;;;;;;5488847;26;20002;-79
2024/04/11 06:12:00;;;;;;;5.95;2.17;;;6.40;99.90;;;;;;5489565;26;19998;-78
2024/04/11 06:14:27;;;;;;;8.07;2.20;;;6.40;99.90;;;;;;5487166;26;19998;-79
2024/04/11 06:16:52;;;;;;;4.00;1.80;;;6.40;99.90;;;;;;5489542;26;20060;-80
2024/04/11 06:19:18;;;;;;;5.72;2.15;;;6.40;99.90;;;;;;5487811;26;19998;-80
2024/04/11 06:21:47;;;;;;;4.25;1.92;;;6.50;99.90;;;;;;5486789;26;19994;-80
2024/04/11 06:24:14;;;;;;;5.32;1.77;;;6.50;99.90;;;;;;5487769;26;19998;-81
2024/04/11 06:26:40;;;;;;;3.88;2.10;;;6.50;99.90;;;;;;5487153;26;20001;-79
2024/04/11 06:29:07;;;;;;;5.72;2.05;;;6.60;99.90;;;;;;5487988;26;19998;-79
2024/04/11 06:31:33;;;;;;;5.32;2.28;;;6.70;99.90;;;;;;5488778;26;20454;-80
2024/04/11 06:33:59;;;;;;;5.93;1.90;;;6.80;99.90;;;;;;5489586;26;20076;-79
2024/04/11 06:36:25;;;;;;;3.17;1.48;;;6.90;99.90;;;;;;5486597;26;20068;-78
2024/04/11 06:38:51;;;;;;;8.38;2.17;;;7.00;99.90;;;;;;5490261;26;19998;-79
2024/04/11 06:41:22;;;;;;;6.60;2.60;;;7.10;99.90;;;;;;5491080;26;20326;-80
2024/04/11 06:43:51;;;;;;;8.93;2.43;;;7.20;99.90;;;;;;5491218;26;19998;-79
2024/04/11 06:46:21;;;;;;;8.27;1.90;;;7.20;99.90;;;;;;5491098;26;19994;-80
2024/04/11 06:48:47;;;;;;;6.20;2.35;;;7.30;99.90;;;;;;5490953;26;20005;-79
2024/04/11 06:51:15;;;;;;;4.55;2.17;;;7.40;99.90;;;;;;5490964;26;19990;-81
2024/04/11 06:53:44;;;;;;;5.95;2.15;;;7.50;99.90;;;;;;5490690;26;20070;-81
2024/04/11 06:56:11;;;;;;;10.07;2.33;;;7.50;99.90;;;;;;5491129;26;19994;-80
2024/04/11 06:58:40;;;;;;;5.30;2.13;;;7.60;99.90;;;;;;5490174;26;20106;-80
2024/04/11 07:01:09;;;;;;;4.55;1.92;;;7.70;99.90;;;;;;5492188;26;20431;-80
2024/04/11 07:03:39;;;;;;;4.20;2.22;;;7.70;99.90;;;;;;5490330;26;20002;-80
2024/04/11 07:06:22;;;;;;;6.13;2.13;;;7.80;99.90;;;;;;5492632;26;20002;-80
2024/04/11 07:08:58;;;;;;;4.95;2.28;;;7.90;99.90;;;;;;5490315;26;20033;-80
2024/04/11 07:11:27;;;;;;;6.78;1.85;;;7.90;99.90;;;;;;5490916;26;20026;-77
2024/04/11 07:13:54;;;;;;;7.00;2.15;;;7.90;99.90;;;;;;5490896;26;20019;-80
2024/04/11 07:16:32;;;;;;;4.75;2.20;;;8.00;99.90;;;;;;5490812;26;20022;-80
2024/04/11 07:18:58;;;;;;;5.45;2.20;;;8.10;99.90;;;;;;5490665;26;19998;-81
2024/04/11 07:21:26;;;;;;;5.55;2.40;;;8.20;99.90;;;;;;5490108;26;20072;-77
2024/04/11 07:23:57;;;;;;;4.10;2.17;;;8.20;99.90;;;;;;5490675;26;19994;-80
2024/04/11 07:26:29;;;;;;;3.78;2.10;;;8.30;99.90;;;;;;5490793;26;20001;-81
2024/04/11 07:28:56;;;;;;;4.10;2.00;;;8.30;99.90;;;;;;5490915;26;19994;-81
2024/04/11 07:31:21;;;;;;;8.13;2.38;;;8.40;99.90;;;;;;5492202;26;20062;-81
2024/04/11 07:33:50;;;;;;;4.53;2.20;;;8.40;99.90;;;;;;5491552;26;20006;-80
2024/04/11 07:36:22;;;;;;;3.92;2.22;;;8.50;99.90;;;;;;5490361;26;20004;-80
2024/04/11 07:38:48;;;;;;;;;;;8.60;99.90;;;;;;5490668;26;19994;-81
2024/04/11 07:41:17;;;;;;;6.75;2.45;;;8.60;99.90;;;;;;5490566;26;20363;-81
2024/04/11 07:43:45;;;;;;;4.20;2.10;;;8.70;99.90;;;;;;5489601;26;20002;-81
2024/04/11 07:46:13;;;;;;;4.88;2.50;;;8.90;99.90;;;;;;5490147;26;20029;-80
2024/04/11 07:48:41;;;;;;;10.65;3.22;;;8.90;99.90;;;;;;5489004;26;19998;-80
2024/04/11 07:51:09;;;;;;;7.53;2.75;;;9.00;99.90;;;;;;5491255;26;20010;-81
2024/04/11 07:53:38;;;;;;;7.47;2.90;;;9.00;99.90;;;;;;5491273;26;19994;-80
2024/04/11 07:56:04;;;;;;;4.95;2.22;;;9.10;99.90;;;;;;5490148;26;20435;-81
2024/04/11 07:58:29;;;;;;;4.88;2.20;;;9.10;99.90;;;;;;5491235;26;20001;-80
2024/04/11 08:00:55;;;;;;;3.92;2.15;;;9.20;99.90;;;;;;5489940;26;20456;-80
2024/04/11 08:03:21;;;;;;;7.10;2.40;;;9.20;99.90;;;;;;5490081;26;20001;-81
2024/04/11 08:05:48;;;;;;;5.05;2.20;;;9.30;99.90;;;;;;5489767;26;20009;-81
2024/04/11 08:08:20;;;;;;;8.55;2.28;;;9.40;99.90;;;;;;5491597;26;20006;-80
2024/04/11 08:10:49;;;;;;;5.63;1.98;;;9.40;99.90;;;;;;5489480;26;19994;-81
2024/04/11 08:13:18;;;;;;;5.78;2.00;;;9.50;99.90;;;;;;5490245;26;19994;-82
2024/04/11 08:15:44;;;;;;;2.85;1.65;;;9.60;99.90;;;;;;5489517;26;20500;-80
2024/04/11 08:18:11;;;;;;;4.82;1.73;;;9.70;99.90;;;;;;5491868;26;20006;-81
2024/04/11 08:20:36;;;;;;;3.10;1.10;;;9.70;99.90;;;;;;5490872;26;20087;-81
2024/04/11 08:23:03;;;;;;;3.95;1.23;;;9.70;99.90;;;;;;5490042;26;19998;-81
2024/04/11 08:25:29;;;;;;;5.95;2.13;;;9.70;99.90;;;;;;5490662;26;20446;-79
2024/04/11 08:27:56;;;;;;;4.57;1.27;;;9.70;99.90;;;;;;5491838;26;20008;-81
2024/04/11 08:30:22;;;;;;;6.30;1.83;;;9.70;99.90;;;;;;5491599;26;20387;-81
2024/04/11 08:32:47;;;;;;;4.00;1.63;;;9.80;99.90;;;;;;5489356;26;20235;-81
2024/04/11 08:35:19;;;;;;;3.67;1.50;;;9.80;99.90;;;;;;5489600;26;19994;-81
2024/04/11 08:37:46;;;;;;;4.75;1.50;;;9.90;99.90;;;;;;5491079;26;20018;-79
2024/04/11 08:40:13;;;;;;;5.55;1.30;;;9.90;99.90;;;;;;5491148;26;20005;-81
2024/04/11 08:42:42;;;;;;;5.50;1.67;;;10.00;99.90;;;;;;5490784;26;20304;-81
2024/04/11 08:45:09;;;;;;;5.75;1.60;;;10.10;99.90;;;;;;5489896;26;20330;-81
2024/04/11 08:47:34;;;;;;;3.63;1.40;;;10.20;99.90;;;;;;5488971;26;20001;-82
2024/04/11 08:50:00;;;;;;;7.95;1.85;;;10.30;99.90;;;;;;5489794;26;19994;-81
2024/04/11 08:52:30;;;;;;;6.20;1.55;;;10.30;99.90;;;;;;5491201;26;19990;-81
2024/04/11 08:54:56;;;;;;;9.05;1.50;;;10.30;99.90;;;;;;5489202;26;20005;-79
2024/04/11 08:57:22;;;;;;;3.65;1.35;;;10.20;99.90;;;;;;5489464;26;20001;-82
2024/04/11 08:59:49;;;;;;;6.75;1.35;;;10.30;99.90;;;;;;5490203;26;20002;-81
2024/04/11 09:02:15;;;;;;;9.60;1.30;;;10.30;99.90;;;;;;5489772;26;19997;-81
2024/04/11 09:04:41;;;;;;;5.18;1.40;;;10.40;99.90;;;;;;5491069;26;19994;-80
2024/04/11 09:07:20;;;;;;;6.68;1.30;;;10.40;99.90;;;;;;5489515;26;20066;-80
2024/04/11 09:09:49;;;;;;;5.13;1.30;;;10.40;99.90;;;;;;5490530;26;19995;-81
2024/04/11 09:12:16;;;;;;;4.13;1.30;;;10.50;99.90;;;;;;5489363;26;20001;-81
2024/04/11 09:14:43;;;;;;;6.00;1.50;;;10.50;99.90;;;;;;5488998;26;19994;-81
2024/04/11 09:17:13;;;;;;;6.68;1.60;;;10.60;99.90;;;;;;5489511;26;19991;-81
2024/04/11 09:19:43;;;;;;;7.80;1.80;;;10.70;99.90;;;;;;5490348;26;20012;-81
2024/04/11 09:22:21;;;;;;;4.82;1.63;;;10.70;99.90;;;;;;5490853;26;19998;-80
2024/04/11 09:24:47;;;;;;;4.97;1.50;;;11.10;99.90;;;;;;5488790;26;20305;-79
2024/04/11 09:27:16;;;;;;;5.90;1.60;;;11.10;99.90;;;;;;5488834;26;20018;-79
2024/04/11 09:29:43;;;;;;;4.15;1.30;;;11.10;99.90;;;;;;5487976;26;19986;-80
2024/04/11 09:32:13;;;;;;;4.15;1.25;;;11.20;99.90;;;;;;5490742;26;20005;-83
2024/04/11 09:34:40;;;;;;;4.55;1.38;;;11.30;99.90;;;;;;5490179;26;20070;-83
2024/04/11 09:37:16;;;;;;;4.28;1.20;;;11.30;99.50;;;;;;5490285;26;20038;-80
2024/04/11 09:39:45;;;;;;;3.58;1.50;;;11.40;99.60;;;;;;5487920;26;20009;-79
2024/04/11 09:42:25;;;;;;;3.80;1.40;;;11.50;99.70;;;;;;5488878;26;20030;-79
2024/04/11 09:44:53;;;;;;;7.95;1.40;;;11.50;99.00;;;;;;5489650;26;20001;-79
2024/04/11 09:47:24;;;;;;;2.80;1.20;;;11.50;98.70;;;;;;5490538;26;20009;-79
2024/04/11 09:49:55;;;;;;;3.20;1.05;;;11.60;98.60;;;;;;5488335;26;19994;-79
2024/04/11 09:52:27;;;;;;;4.60;0.83;;;11.70;98.10;;;;;;5488841;26;20002;-79
2024/04/11 09:54:55;;;;;;;4.60;1.35;;;11.60;98.30;;;;;;5488167;26;20176;-79
2024/04/11 09:57:24;;;;;;;5.45;1.20;;;11.60;97.90;;;;;;5488976;26;20006;-79
2024/04/11 09:59:50;;;;;;;4.32;0.90;;;11.60;98.00;;;;;;5489269;26;19986;-79
2024/04/11 10:02:20;;;;;;;2.42;0.95;;;11.80;97.60;;;;;;5488781;26;19998;-81
2024/04/11 10:04:47;;;;;;;3.25;0.85;;;11.90;96.60;;;;;;5489984;26;20005;-81
2024/04/11 10:07:19;;;;;;;4.22;0.70;;;11.90;96.60;;;;;;5490602;26;19998;-79
2024/04/11 10:09:49;;;;;;;;;;;11.90;97.40;;;;;;5488355;26;19994;-79
2024/04/11 10:12:19;;;;;;;3.47;1.20;;;12.00;97.80;;;;;;5487658;26;19924;-80
2024/04/11 10:14:48;;;;;;;3.80;0.80;;;12.00;97.60;;;;;;5489193;26;20005;-78
2024/04/11 10:17:14;;;;;;;5.45;0.80;;;12.00;96.20;;;;;;5489961;26;20018;-79
2024/04/11 10:19:43;;;;;;;3.25;0.98;;;12.00;96.10;;;;;;5488991;26;20009;-79
2024/04/11 10:22:15;;;;;;;5.40;0.90;;;12.00;95.90;;;;;;5488119;26;19990;-79
2024/04/11 10:24:44;;;;;;;2.42;0.80;;;12.10;96.10;;;;;;5488893;26;20009;-79
2024/04/11 10:27:20;;;;;;;1.58;0.70;;;12.20;96.00;;;;;;5487851;26;19998;-79
2024/04/11 10:29:48;;;;;;;4.75;0.75;;;12.30;95.90;;;;;;5488797;26;19990;-79
2024/04/11 10:32:21;;;;;;;2.70;0.77;;;12.50;95.30;;;;;;5487954;26;19994;-80
2024/04/11 10:35:01;;;;;;;3.90;0.93;;;12.50;95.10;;;;;;5487087;26;19990;-78
2024/04/11 10:37:29;;;;;;;2.65;0.70;;;12.60;94.70;;;;;;5487713;26;20080;-81
2024/04/11 10:40:00;;;;;;;5.75;0.70;;;12.70;95.00;;;;;;5488571;26;19994;-79
2024/04/11 10:42:36;;;;;;;5.20;0.75;;;12.80;93.60;;;;;;5487650;26;19990;-79
2024/04/11 10:45:17;;;;;;;4.82;0.75;;;12.90;93.00;;;;;;5489553;26;19991;-79
2024/04/11 10:47:44;;;;;;;4.38;0.80;;;13.10;93.10;;;;;;5486695;26;20001;-79
2024/04/11 10:50:13;;;;;;;2.58;0.65;;;13.20;94.20;;;;;;5489126;26;19994;-79
2024/04/11 10:52:46;;;;;;;2.92;0.60;;;13.20;93.90;;;;;;5488399;26;20416;-79
2024/04/11 10:55:22;;;;;;;3.30;0.75;;;13.20;93.00;;;;;;5487262;26;19995;-79
2024/04/11 10:57:56;;;;;;;2.33;0.70;;;13.20;93.00;;;;;;5488172;26;20009;-79
2024/04/11 11:00:38;;;;;;;2.63;0.90;;;13.20;93.20;;;;;;5486896;26;20002;-79
2024/04/11 11:03:11;;;;;;;4.15;0.70;;;13.50;92.80;;;;;;5489073;26;19994;-81
2024/04/11 11:05:42;;;;;;;1.65;0.77;;;13.70;91.60;;;;;;5489043;26;19993;-81
2024/04/11 11:08:10;;;;;;;3.85;0.75;;;13.80;90.90;;;;;;5487634;26;19994;-80
2024/04/11 11:10:36;;;;;;;4.18;0.80;;;13.90;90.70;;;;;;5487146;26;20435;-80
2024/04/11 11:13:04;;;;;;;6.03;0.82;;;14.00;92.00;;;;;;5487808;26;20002;-79
2024/04/11 11:15:31;;;;;;;4.45;1.00;;;14.20;90.80;;;;;;5488528;26;19998;-79
2024/04/11 11:17:59;;;;;;;3.85;1.10;;;14.40;90.90;;;;;;5486190;26;20067;-79
2024/04/11 11:20:26;;;;;;;6.95;1.13;;;14.50;91.70;;;;;;5486762;26;20005;-81
2024/04/11 11:22:56;;;;;;;4.40;0.82;;;14.60;92.10;;;;;;5487733;26;20423;-81
2024/04/11 11:25:24;;;;;;;3.20;0.85;;;14.80;92.80;;;;;;5488869;26;19990;-81
2024/04/11 11:27:51;;;;;;;28.98;10.35;;;14.80;91.20;;;;;;5490081;26;19990;-79
2024/04/11 11:30:17;;;;;;;6.63;1.50;;;15.00;91.10;;;;;;5492745;26;19994;-78
2024/04/11 11:32:43;;;;;;;6.60;2.95;;;15.10;84.70;;;;;;5490386;26;20082;-79
2024/04/11 11:35:12;;;;;;;5.10;2.65;;;15.30;86.10;;;;;;5490609;26;20435;-79
2024/04/11 11:37:38;;;;;;;9.23;3.17;;;15.40;88.10;;;;;;5490746;26;19994;-79
2024/04/11 11:40:38;;;;;;;7.13;2.47;;;15.60;88.10;;;;;;5490093;26;20420;-79
2024/04/11 11:42:52;;;;;;;2.85;1.13;;;15.70;89.30;;;;;;5491798;26;20319;-79
2024/04/11 11:45:26;;;;;;;3.63;0.90;;;15.90;86.90;;;;;;5492312;26;19998;-80
2024/04/11 11:47:57;;;;;;;4.93;1.08;;;16.00;83.10;;;;;;5490092;26;20026;-80
2024/04/11 11:50:27;;;;;;;5.30;0.95;;;16.10;85.10;;;;;;5490497;26;20070;-80
2024/04/11 11:52:55;;;;;;;1.90;0.73;;;16.30;84.10;;;;;;5490279;26;20002;-79
2024/04/11 11:55:25;;;;;;;4.00;0.90;;;16.50;83.30;;;;;;5492097;26;20010;-80
2024/04/11 11:57:58;;;;;;;2.80;0.90;;;16.50;82.40;;;;;;5489762;26;19990;-79
2024/04/11 12:00:26;;;;;;;2.33;0.73;;;16.70;79.90;;;;;;5492283;26;19990;-79
2024/04/11 12:02:56;;;;;;;5.00;0.82;;;16.80;80.30;;;;;;5491987;26;20070;-80
2024/04/11 12:05:28;;;;;;;5.18;0.93;;;16.80;81.00;;;;;;5490515;26;20040;-80
2024/04/11 12:07:58;;;;;;;3.63;0.90;;;16.70;79.30;;;;;;5489846;26;19997;-79
2024/04/11 12:13:18;;;;;;;2.00;0.55;;;16.70;78.80;;;;;;5492484;26;19998;-80
2024/04/11 12:15:48;;;;;;;4.82;0.80;;;16.70;77.70;;;;;;5489944;26;20427;-79
2024/04/11 12:18:21;;;;;;;3.20;0.90;;;16.70;78.10;;;;;;5491743;26;20001;-80
2024/04/11 12:20:47;;;;;;;4.43;0.82;;;16.70;77.10;;;;;;5489494;26;19990;-79
2024/04/11 12:23:14;;;;;;;4.78;1.00;;;16.70;77.10;;;;;;5492114;26;20005;-80
2024/04/11 12:25:41;;;;;;;3.65;0.90;;;16.70;76.70;;;;;;5490136;26;20022;-80
2024/04/11 12:28:09;;;;;;;1.52;0.70;;;16.70;76.10;;;;;;5489820;26;20002;-80
2024/04/11 12:30:36;;;;;;;2.70;0.63;;;16.70;75.70;;;;;;5491861;26;20430;-80
2024/04/11 12:33:05;;;;;;;4.25;0.90;;;16.70;75.00;;;;;;5489299;26;19998;-80
2024/04/11 12:35:41;;;;;;;3.28;0.82;;;16.80;75.70;;;;;;5491180;26;20005;-80
2024/04/11 12:38:12;;;;;;;3.25;0.70;;;16.80;76.30;;;;;;5491074;26;19994;-80
2024/04/11 12:40:39;;;;;;;3.67;0.82;;;16.80;75.40;;;;;;5489987;26;19990;-79
2024/04/11 12:43:05;;;;;;;3.47;0.60;;;16.80;74.40;;;;;;5488997;26;19998;-80
2024/04/11 12:45:31;;;;;;;4.13;0.82;;;16.80;74.10;;;;;;5489895;26;20004;-80
2024/04/11 12:48:07;;;;;;;2.53;0.75;;;16.80;75.40;;;;;;5488987;26;20009;-79
2024/04/11 12:50:35;;;;;;;4.25;0.63;;;16.90;74.70;;;;;;5490244;26;20005;-79
2024/04/11 12:53:12;;;;;;;7.95;0.98;;;17.00;73.90;;;;;;5489079;26;19994;-79
2024/04/11 12:55:39;;;;;;;1.50;0.70;;;17.10;74.30;;;;;;5491759;26;20005;-80
2024/04/11 12:58:07;;;;;;;3.13;0.90;;;17.20;74.40;;;;;;5490957;26;20005;-80
2024/04/11 13:00:43;;;;;;;2.90;0.60;;;17.40;72.40;;;;;;5489495;26;19994;-79
2024/04/11 13:03:19;;;;;;;3.20;0.88;;;17.60;72.70;;;;;;5489433;26;20004;-80